sensor_id;sensor_type;location;lat;lon;timestamp;pressure;altitude;pressure_sealevel;temperature;humidity
20930;BME280;21895;47.072;15.132;2023-05-03T00:02:06;97189.00;;;12.08;83.58
20930;BME280;21895;47.072;15.132;2023-05-03T00:04:32;97195.00;;;12.20;82.89
20930;BME280;21895;47.072;15.132;2023-05-03T00:06:59;97182.00;;;12.20;82.39
20930;BME280;21895;47.072;15.132;2023-05-03T00:09:26;97182.00;;;12.17;82.66
20930;BME280;21895;47.072;15.132;2023-05-03T00:11:52;97183.00;;;12.12;82.67
20930;BME280;21895;47.072;15.132;2023-05-03T00:14:19;97173.00;;;12.10;83.43
20930;BME280;21895;47.072;15.132;2023-05-03T00:16:45;97178.00;;;12.11;83.35
20930;BME280;21895;47.072;15.132;2023-05-03T00:19:12;97178.00;;;12.13;83.49
20930;BME280;21895;47.072;15.132;2023-05-03T00:21:56;97174.00;;;12.12;83.47
20930;BME280;21895;47.072;15.132;2023-05-03T00:24:23;97181.00;;;12.16;83.71
20930;BME280;21895;47.072;15.132;2023-05-03T00:26:49;97185.00;;;12.15;83.48
20930;BME280;21895;47.072;15.132;2023-05-03T00:29:16;97189.00;;;12.16;83.30
20930;BME280;21895;47.072;15.132;2023-05-03T00:31:44;97181.00;;;12.23;83.01
20930;BME280;21895;47.072;15.132;2023-05-03T00:34:10;97189.00;;;12.21;83.36
20930;BME280;21895;47.072;15.132;2023-05-03T00:36:37;97183.00;;;12.26;83.04
20930;BME280;21895;47.072;15.132;2023-05-03T00:39:03;97185.00;;;12.25;83.16
20930;BME280;21895;47.072;15.132;2023-05-03T00:41:30;97192.00;;;12.26;82.68
20930;BME280;21895;47.072;15.132;2023-05-03T00:43:56;97187.00;;;12.18;81.74
20930;BME280;21895;47.072;15.132;2023-05-03T00:46:23;97185.00;;;12.00;82.65
20930;BME280;21895;47.072;15.132;2023-05-03T00:48:49;97186.00;;;12.01;82.47
20930;BME280;21895;47.072;15.132;2023-05-03T00:51:18;97174.00;;;12.10;81.71
20930;BME280;21895;47.072;15.132;2023-05-03T00:53:45;97178.00;;;11.96;82.57
20930;BME280;21895;47.072;15.132;2023-05-03T00:56:18;97183.00;;;11.89;83.29
20930;BME280;21895;47.072;15.132;2023-05-03T00:58:49;97179.00;;;11.91;83.54
20930;BME280;21895;47.072;15.132;2023-05-03T01:01:16;97186.00;;;11.94;83.02
20930;BME280;21895;47.072;15.132;2023-05-03T01:03:43;97179.00;;;11.95;82.77
20930;BME280;21895;47.072;15.132;2023-05-03T01:08:00;97190.00;;;11.95;82.77
20930;BME280;21895;47.072;15.132;2023-05-03T01:10:47;97189.00;;;11.94;82.61
20930;BME280;21895;47.072;15.132;2023-05-03T01:16:43;97192.00;;;11.89;82.88
20930;BME280;21895;47.072;15.132;2023-05-03T01:19:35;97184.00;;;12.04;82.17
20930;BME280;21895;47.072;15.132;2023-05-03T01:24:02;97182.00;;;12.10;81.58
20930;BME280;21895;47.072;15.132;2023-05-03T01:26:29;97181.00;;;11.96;81.77
20930;BME280;21895;47.072;15.132;2023-05-03T01:28:56;97186.00;;;11.91;81.98
20930;BME280;21895;47.072;15.132;2023-05-03T01:35:49;97185.00;;;11.85;82.47
20930;BME280;21895;47.072;15.132;2023-05-03T01:38:19;97181.00;;;11.84;82.29
20930;BME280;21895;47.072;15.132;2023-05-03T01:40:51;97181.00;;;11.80;82.43
20930;BME280;21895;47.072;15.132;2023-05-03T01:43:20;97181.00;;;11.79;82.51
20930;BME280;21895;47.072;15.132;2023-05-03T01:45:47;97173.00;;;11.84;82.51
20930;BME280;21895;47.072;15.132;2023-05-03T01:48:16;97186.00;;;11.89;82.49
20930;BME280;21895;47.072;15.132;2023-05-03T01:50:44;97179.00;;;11.85;82.57
20930;BME280;21895;47.072;15.132;2023-05-03T01:53:11;97183.00;;;11.82;83.04
20930;BME280;21895;47.072;15.132;2023-05-03T01:55:37;97186.00;;;11.84;82.62
20930;BME280;21895;47.072;15.132;2023-05-03T01:58:04;97183.00;;;11.89;82.13
20930;BME280;21895;47.072;15.132;2023-05-03T02:00:32;97180.00;;;11.84;83.26
20930;BME280;21895;47.072;15.132;2023-05-03T02:02:58;97183.00;;;11.81;83.09
20930;BME280;21895;47.072;15.132;2023-05-03T02:05:25;97186.00;;;11.83;82.96
20930;BME280;21895;47.072;15.132;2023-05-03T02:07:51;97180.00;;;11.80;82.99
20930;BME280;21895;47.072;15.132;2023-05-03T02:10:18;97178.00;;;11.91;82.77
20930;BME280;21895;47.072;15.132;2023-05-03T02:12:45;97182.00;;;11.91;82.24
20930;BME280;21895;47.072;15.132;2023-05-03T02:15:12;97183.00;;;11.87;82.39
20930;BME280;21895;47.072;15.132;2023-05-03T02:17:42;97181.00;;;11.81;82.48
20930;BME280;21895;47.072;15.132;2023-05-03T02:20:09;97178.00;;;11.98;82.52
20930;BME280;21895;47.072;15.132;2023-05-03T02:22:36;97172.00;;;11.95;82.14
20930;BME280;21895;47.072;15.132;2023-05-03T02:25:02;97185.00;;;11.87;82.58
20930;BME280;21895;47.072;15.132;2023-05-03T02:27:29;97180.00;;;11.90;82.21
20930;BME280;21895;47.072;15.132;2023-05-03T02:29:55;97183.00;;;11.85;82.40
20930;BME280;21895;47.072;15.132;2023-05-03T02:32:22;97190.00;;;11.85;82.20
20930;BME280;21895;47.072;15.132;2023-05-03T02:34:49;97180.00;;;11.92;81.63
20930;BME280;21895;47.072;15.132;2023-05-03T02:37:15;97180.00;;;11.95;81.52
20930;BME280;21895;47.072;15.132;2023-05-03T02:39:42;97182.00;;;12.03;81.19
20930;BME280;21895;47.072;15.132;2023-05-03T02:42:08;97187.00;;;11.95;81.75
20930;BME280;21895;47.072;15.132;2023-05-03T02:44:35;97184.00;;;11.86;82.21
20930;BME280;21895;47.072;15.132;2023-05-03T02:47:02;97182.00;;;11.85;82.57
20930;BME280;21895;47.072;15.132;2023-05-03T02:49:28;97186.00;;;11.86;82.12
20930;BME280;21895;47.072;15.132;2023-05-03T02:51:55;97183.00;;;11.75;82.66
20930;BME280;21895;47.072;15.132;2023-05-03T02:54:21;97178.00;;;11.77;82.86
20930;BME280;21895;47.072;15.132;2023-05-03T02:56:48;97177.00;;;11.87;82.43
20930;BME280;21895;47.072;15.132;2023-05-03T02:59:14;97179.00;;;11.93;81.42
20930;BME280;21895;47.072;15.132;2023-05-03T03:01:41;97180.00;;;11.87;81.71
20930;BME280;21895;47.072;15.132;2023-05-03T03:04:08;97179.00;;;11.88;82.02
20930;BME280;21895;47.072;15.132;2023-05-03T03:06:35;97182.00;;;11.95;81.94
20930;BME280;21895;47.072;15.132;2023-05-03T03:09:02;97181.00;;;11.98;81.48
20930;BME280;21895;47.072;15.132;2023-05-03T03:11:30;97178.00;;;12.08;80.80
20930;BME280;21895;47.072;15.132;2023-05-03T03:13:56;97178.00;;;11.98;80.78
20930;BME280;21895;47.072;15.132;2023-05-03T03:16:23;97177.00;;;11.94;81.27
20930;BME280;21895;47.072;15.132;2023-05-03T03:18:49;97179.00;;;11.83;81.19
20930;BME280;21895;47.072;15.132;2023-05-03T03:21:16;97177.00;;;11.85;81.26
20930;BME280;21895;47.072;15.132;2023-05-03T03:23:42;97176.00;;;11.70;81.51
20930;BME280;21895;47.072;15.132;2023-05-03T03:26:09;97171.00;;;11.67;81.92
20930;BME280;21895;47.072;15.132;2023-05-03T03:28:36;97178.00;;;11.81;81.27
20930;BME280;21895;47.072;15.132;2023-05-03T03:31:02;97181.00;;;11.69;82.20
20930;BME280;21895;47.072;15.132;2023-05-03T03:33:29;97183.00;;;11.84;81.64
20930;BME280;21895;47.072;15.132;2023-05-03T03:35:55;97184.00;;;11.96;81.06
20930;BME280;21895;47.072;15.132;2023-05-03T03:38:22;97185.00;;;12.09;80.41
20930;BME280;21895;47.072;15.132;2023-05-03T03:40:48;97193.00;;;12.00;80.14
20930;BME280;21895;47.072;15.132;2023-05-03T03:43:15;97195.00;;;11.91;80.70
20930;BME280;21895;47.072;15.132;2023-05-03T03:45:41;97200.00;;;11.91;80.88
20930;BME280;21895;47.072;15.132;2023-05-03T03:48:08;97199.00;;;11.82;81.69
20930;BME280;21895;47.072;15.132;2023-05-03T03:50:36;97199.00;;;11.89;81.75
20930;BME280;21895;47.072;15.132;2023-05-03T03:53:02;97196.00;;;11.92;81.69
20930;BME280;21895;47.072;15.132;2023-05-03T03:55:29;97204.00;;;11.95;81.55
20930;BME280;21895;47.072;15.132;2023-05-03T03:57:56;97203.00;;;11.90;81.33
20930;BME280;21895;47.072;15.132;2023-05-03T04:00:23;97200.00;;;11.91;81.19
20930;BME280;21895;47.072;15.132;2023-05-03T04:02:49;97201.00;;;11.92;81.22
20930;BME280;21895;47.072;15.132;2023-05-03T04:05:16;97208.00;;;11.80;81.45
20930;BME280;21895;47.072;15.132;2023-05-03T04:07:43;97208.00;;;11.83;81.72
20930;BME280;21895;47.072;15.132;2023-05-03T04:10:09;97206.00;;;11.91;81.73
20930;BME280;21895;47.072;15.132;2023-05-03T04:12:36;97210.00;;;11.99;80.92
20930;BME280;21895;47.072;15.132;2023-05-03T04:15:04;97207.00;;;12.02;80.43
20930;BME280;21895;47.072;15.132;2023-05-03T04:17:31;97217.00;;;12.15;80.21
20930;BME280;21895;47.072;15.132;2023-05-03T04:20:01;97216.00;;;12.06;80.13
20930;BME280;21895;47.072;15.132;2023-05-03T04:22:36;97217.00;;;12.07;80.41
20930;BME280;21895;47.072;15.132;2023-05-03T04:25:07;97221.00;;;11.96;81.01
20930;BME280;21895;47.072;15.132;2023-05-03T04:27:34;97219.00;;;11.93;81.82
20930;BME280;21895;47.072;15.132;2023-05-03T04:30:00;97221.00;;;11.96;81.65
20930;BME280;21895;47.072;15.132;2023-05-03T04:32:28;97222.00;;;12.01;80.93
20930;BME280;21895;47.072;15.132;2023-05-03T04:34:54;97222.00;;;11.95;81.24
20930;BME280;21895;47.072;15.132;2023-05-03T04:37:21;97231.00;;;11.99;80.79
20930;BME280;21895;47.072;15.132;2023-05-03T04:39:48;97230.00;;;12.03;81.04
20930;BME280;21895;47.072;15.132;2023-05-03T04:42:15;97231.00;;;11.94;81.10
20930;BME280;21895;47.072;15.132;2023-05-03T04:44:41;97233.00;;;11.97;80.94
20930;BME280;21895;47.072;15.132;2023-05-03T04:47:11;97234.00;;;12.09;80.23
20930;BME280;21895;47.072;15.132;2023-05-03T04:49:37;97239.00;;;12.22;80.14
20930;BME280;21895;47.072;15.132;2023-05-03T04:52:05;97238.00;;;12.34;79.08
20930;BME280;21895;47.072;15.132;2023-05-03T04:54:31;97242.00;;;12.24;79.65
20930;BME280;21895;47.072;15.132;2023-05-03T04:56:58;97245.00;;;12.35;79.54
20930;BME280;21895;47.072;15.132;2023-05-03T04:59:25;97235.00;;;12.33;79.63
20930;BME280;21895;47.072;15.132;2023-05-03T05:01:51;97242.00;;;12.34;79.45
20930;BME280;21895;47.072;15.132;2023-05-03T05:04:18;97240.00;;;12.36;79.61
20930;BME280;21895;47.072;15.132;2023-05-03T05:06:44;97245.00;;;12.41;79.32
20930;BME280;21895;47.072;15.132;2023-05-03T05:09:27;97246.00;;;12.57;78.85
20930;BME280;21895;47.072;15.132;2023-05-03T05:11:54;97244.00;;;12.67;78.41
20930;BME280;21895;47.072;15.132;2023-05-03T05:14:24;97249.00;;;12.67;78.48
20930;BME280;21895;47.072;15.132;2023-05-03T05:16:51;97248.00;;;12.87;77.40
20930;BME280;21895;47.072;15.132;2023-05-03T05:19:18;97245.00;;;12.85;76.35
20930;BME280;21895;47.072;15.132;2023-05-03T05:21:44;97249.00;;;12.95;76.27
20930;BME280;21895;47.072;15.132;2023-05-03T05:24:11;97254.00;;;13.10;75.85
20930;BME280;21895;47.072;15.132;2023-05-03T05:26:38;97253.00;;;13.00;76.36
20930;BME280;21895;47.072;15.132;2023-05-03T05:29:04;97251.00;;;12.90;76.97
20930;BME280;21895;47.072;15.132;2023-05-03T05:31:31;97246.00;;;13.04;76.87
20930;BME280;21895;47.072;15.132;2023-05-03T05:33:58;97258.00;;;13.00;76.43
20930;BME280;21895;47.072;15.132;2023-05-03T05:36:25;97252.00;;;13.16;76.27
20930;BME280;21895;47.072;15.132;2023-05-03T05:38:51;97254.00;;;13.10;76.69
20930;BME280;21895;47.072;15.132;2023-05-03T05:41:18;97263.00;;;13.18;76.41
20930;BME280;21895;47.072;15.132;2023-05-03T05:43:45;97266.00;;;13.14;76.64
20930;BME280;21895;47.072;15.132;2023-05-03T05:46:11;97262.00;;;13.19;76.79
20930;BME280;21895;47.072;15.132;2023-05-03T05:48:39;97264.00;;;13.23;76.16
20930;BME280;21895;47.072;15.132;2023-05-03T05:51:07;97271.00;;;13.39;75.37
20930;BME280;21895;47.072;15.132;2023-05-03T05:53:34;97273.00;;;13.42;74.98
20930;BME280;21895;47.072;15.132;2023-05-03T05:56:00;97270.00;;;13.56;75.30
20930;BME280;21895;47.072;15.132;2023-05-03T05:58:27;97273.00;;;13.59;74.80
20930;BME280;21895;47.072;15.132;2023-05-03T06:00:58;97274.00;;;13.68;74.69
20930;BME280;21895;47.072;15.132;2023-05-03T06:03:26;97278.00;;;13.87;73.97
20930;BME280;21895;47.072;15.132;2023-05-03T06:05:53;97275.00;;;13.96;74.05
20930;BME280;21895;47.072;15.132;2023-05-03T06:08:19;97274.00;;;14.23;72.82
20930;BME280;21895;47.072;15.132;2023-05-03T06:10:46;97276.00;;;14.33;72.17
20930;BME280;21895;47.072;15.132;2023-05-03T06:13:12;97282.00;;;14.50;72.04
20930;BME280;21895;47.072;15.132;2023-05-03T06:15:40;97274.00;;;14.61;72.38
20930;BME280;21895;47.072;15.132;2023-05-03T06:18:07;97284.00;;;14.89;71.42
20930;BME280;21895;47.072;15.132;2023-05-03T06:20:34;97278.00;;;15.05;70.47
20930;BME280;21895;47.072;15.132;2023-05-03T06:23:00;97275.00;;;15.10;69.82
20930;BME280;21895;47.072;15.132;2023-05-03T06:25:27;97269.00;;;15.19;70.14
20930;BME280;21895;47.072;15.132;2023-05-03T06:27:53;97280.00;;;15.38;69.77
20930;BME280;21895;47.072;15.132;2023-05-03T06:30:20;97270.00;;;15.56;69.02
20930;BME280;21895;47.072;15.132;2023-05-03T06:32:48;97281.00;;;15.87;66.47
20930;BME280;21895;47.072;15.132;2023-05-03T06:35:15;97283.00;;;15.84;66.89
20930;BME280;21895;47.072;15.132;2023-05-03T06:37:43;97280.00;;;15.92;66.52
20930;BME280;21895;47.072;15.132;2023-05-03T06:40:11;97283.00;;;16.03;66.09
20930;BME280;21895;47.072;15.132;2023-05-03T06:42:37;97286.00;;;16.18;65.64
20930;BME280;21895;47.072;15.132;2023-05-03T06:45:05;97288.00;;;16.46;64.70
20930;BME280;21895;47.072;15.132;2023-05-03T06:47:32;97287.00;;;16.52;63.97
20930;BME280;21895;47.072;15.132;2023-05-03T06:49:59;97292.00;;;16.72;63.20
20930;BME280;21895;47.072;15.132;2023-05-03T06:52:26;97289.00;;;16.72;63.42
20930;BME280;21895;47.072;15.132;2023-05-03T06:54:52;97287.00;;;16.74;62.62
20930;BME280;21895;47.072;15.132;2023-05-03T06:57:19;97292.00;;;16.79;62.68
20930;BME280;21895;47.072;15.132;2023-05-03T06:59:48;97292.00;;;16.99;62.44
20930;BME280;21895;47.072;15.132;2023-05-03T07:02:16;97287.00;;;17.10;62.75
20930;BME280;21895;47.072;15.132;2023-05-03T07:04:43;97287.00;;;17.27;62.11
20930;BME280;21895;47.072;15.132;2023-05-03T07:07:09;97280.00;;;17.39;61.47
20930;BME280;21895;47.072;15.132;2023-05-03T07:09:36;97284.00;;;17.57;60.33
20930;BME280;21895;47.072;15.132;2023-05-03T07:12:10;97290.00;;;17.69;59.68
20930;BME280;21895;47.072;15.132;2023-05-03T07:14:38;97283.00;;;17.61;60.48
20930;BME280;21895;47.072;15.132;2023-05-03T07:17:05;97289.00;;;17.62;60.98
20930;BME280;21895;47.072;15.132;2023-05-03T07:19:32;97291.00;;;17.60;58.67
20930;BME280;21895;47.072;15.132;2023-05-03T07:21:59;97293.00;;;17.68;58.05
20930;BME280;21895;47.072;15.132;2023-05-03T07:24:25;97279.00;;;17.67;58.86
20930;BME280;21895;47.072;15.132;2023-05-03T07:26:52;97287.00;;;17.64;59.95
20930;BME280;21895;47.072;15.132;2023-05-03T07:29:19;97284.00;;;17.72;60.19
20930;BME280;21895;47.072;15.132;2023-05-03T07:31:46;97290.00;;;17.90;59.43
20930;BME280;21895;47.072;15.132;2023-05-03T07:34:13;97287.00;;;17.61;59.60
20930;BME280;21895;47.072;15.132;2023-05-03T07:36:39;97279.00;;;17.61;59.96
20930;BME280;21895;47.072;15.132;2023-05-03T07:39:06;97284.00;;;17.40;59.50
20930;BME280;21895;47.072;15.132;2023-05-03T07:41:33;97285.00;;;17.63;58.71
20930;BME280;21895;47.072;15.132;2023-05-03T07:43:59;97279.00;;;17.35;59.00
20930;BME280;21895;47.072;15.132;2023-05-03T07:46:26;97284.00;;;17.42;59.75
20930;BME280;21895;47.072;15.132;2023-05-03T07:48:52;97280.00;;;17.51;58.77
20930;BME280;21895;47.072;15.132;2023-05-03T07:51:19;97276.00;;;17.20;60.15
20930;BME280;21895;47.072;15.132;2023-05-03T07:53:46;97281.00;;;17.13;61.04
20930;BME280;21895;47.072;15.132;2023-05-03T07:56:12;97276.00;;;17.13;61.70
20930;BME280;21895;47.072;15.132;2023-05-03T07:58:39;97277.00;;;17.22;63.10
20930;BME280;21895;47.072;15.132;2023-05-03T08:01:08;97283.00;;;17.43;61.63
20930;BME280;21895;47.072;15.132;2023-05-03T08:03:35;97278.00;;;17.65;61.79
20930;BME280;21895;47.072;15.132;2023-05-03T08:06:02;97280.00;;;17.46;60.75
20930;BME280;21895;47.072;15.132;2023-05-03T08:08:28;97282.00;;;17.35;61.72
20930;BME280;21895;47.072;15.132;2023-05-03T08:10:57;97280.00;;;17.46;62.20
20930;BME280;21895;47.072;15.132;2023-05-03T08:13:23;97285.00;;;17.39;62.85
20930;BME280;21895;47.072;15.132;2023-05-03T08:15:50;97285.00;;;17.60;62.38
20930;BME280;21895;47.072;15.132;2023-05-03T08:18:17;97281.00;;;17.74;62.04
20930;BME280;21895;47.072;15.132;2023-05-03T08:20:43;97286.00;;;17.87;61.30
20930;BME280;21895;47.072;15.132;2023-05-03T08:23:12;97289.00;;;18.03;60.02
20930;BME280;21895;47.072;15.132;2023-05-03T08:25:38;97295.00;;;18.20;59.50
20930;BME280;21895;47.072;15.132;2023-05-03T08:28:05;97292.00;;;18.20;59.25
20930;BME280;21895;47.072;15.132;2023-05-03T08:30:34;97297.00;;;18.26;58.96
20930;BME280;21895;47.072;15.132;2023-05-03T08:33:01;97296.00;;;18.37;59.04
20930;BME280;21895;47.072;15.132;2023-05-03T08:35:27;97298.00;;;18.35;58.55
20930;BME280;21895;47.072;15.132;2023-05-03T08:37:54;97304.00;;;18.43;58.16
20930;BME280;21895;47.072;15.132;2023-05-03T08:40:21;97293.00;;;18.41;57.99
20930;BME280;21895;47.072;15.132;2023-05-03T08:42:48;97297.00;;;18.45;57.91
20930;BME280;21895;47.072;15.132;2023-05-03T08:45:16;97292.00;;;18.33;58.11
20930;BME280;21895;47.072;15.132;2023-05-03T08:47:43;97302.00;;;18.48;58.08
20930;BME280;21895;47.072;15.132;2023-05-03T08:50:12;97295.00;;;18.42;58.16
20930;BME280;21895;47.072;15.132;2023-05-03T08:52:41;97296.00;;;18.55;56.52
20930;BME280;21895;47.072;15.132;2023-05-03T08:55:09;97299.00;;;18.70;55.87
20930;BME280;21895;47.072;15.132;2023-05-03T08:57:36;97294.00;;;18.61;56.33
20930;BME280;21895;47.072;15.132;2023-05-03T09:00:04;97295.00;;;18.71;55.75
20930;BME280;21895;47.072;15.132;2023-05-03T09:02:31;97308.00;;;18.79;54.01
20930;BME280;21895;47.072;15.132;2023-05-03T09:07:06;97301.00;;;18.76;54.59
20930;BME280;21895;47.072;15.132;2023-05-03T09:09:32;97308.00;;;18.89;54.56
20930;BME280;21895;47.072;15.132;2023-05-03T09:11:59;97312.00;;;18.88;53.13
20930;BME280;21895;47.072;15.132;2023-05-03T09:14:26;97310.00;;;18.87;53.50
20930;BME280;21895;47.072;15.132;2023-05-03T09:16:53;97310.00;;;19.06;53.63
20930;BME280;21895;47.072;15.132;2023-05-03T09:19:19;97310.00;;;19.04;52.25
20930;BME280;21895;47.072;15.132;2023-05-03T09:21:47;97303.00;;;19.34;50.92
20930;BME280;21895;47.072;15.132;2023-05-03T09:24:21;97300.00;;;19.52;49.89
20930;BME280;21895;47.072;15.132;2023-05-03T09:26:50;97299.00;;;19.63;49.54
20930;BME280;21895;47.072;15.132;2023-05-03T09:29:32;97291.00;;;20.04;48.81
20930;BME280;21895;47.072;15.132;2023-05-03T09:32:04;97290.00;;;20.24;47.57
20930;BME280;21895;47.072;15.132;2023-05-03T09:34:31;97291.00;;;20.47;47.17
20930;BME280;21895;47.072;15.132;2023-05-03T09:36:58;97282.00;;;20.29;47.67
20930;BME280;21895;47.072;15.132;2023-05-03T09:39:25;97293.00;;;20.43;48.10
20930;BME280;21895;47.072;15.132;2023-05-03T09:41:51;97288.00;;;20.71;46.20
20930;BME280;21895;47.072;15.132;2023-05-03T09:44:18;97290.00;;;20.60;45.25
20930;BME280;21895;47.072;15.132;2023-05-03T09:47:04;97295.00;;;20.41;47.01
20930;BME280;21895;47.072;15.132;2023-05-03T09:49:34;97285.00;;;20.82;44.61
20930;BME280;21895;47.072;15.132;2023-05-03T09:52:03;97284.00;;;20.71;44.22
20930;BME280;21895;47.072;15.132;2023-05-03T09:54:30;97285.00;;;20.65;43.30
20930;BME280;21895;47.072;15.132;2023-05-03T09:56:57;97280.00;;;20.72;44.39
20930;BME280;21895;47.072;15.132;2023-05-03T09:59:24;97291.00;;;20.88;45.12
20930;BME280;21895;47.072;15.132;2023-05-03T10:01:55;97279.00;;;20.82;42.40
20930;BME280;21895;47.072;15.132;2023-05-03T10:04:27;97281.00;;;20.66;42.70
20930;BME280;21895;47.072;15.132;2023-05-03T10:07:06;97283.00;;;20.76;41.27
20930;BME280;21895;47.072;15.132;2023-05-03T10:09:43;97281.00;;;20.37;42.10
20930;BME280;21895;47.072;15.132;2023-05-03T10:12:12;97277.00;;;20.21;41.52
20930;BME280;21895;47.072;15.132;2023-05-03T10:14:47;97283.00;;;20.30;42.18
20930;BME280;21895;47.072;15.132;2023-05-03T10:17:33;97278.00;;;20.71;43.64
20930;BME280;21895;47.072;15.132;2023-05-03T10:20:44;97277.00;;;20.91;40.74
20930;BME280;21895;47.072;15.132;2023-05-03T10:23:17;97277.00;;;20.84;40.98
20930;BME280;21895;47.072;15.132;2023-05-03T10:26:20;97272.00;;;20.86;42.33
20930;BME280;21895;47.072;15.132;2023-05-03T10:28:47;97271.00;;;21.08;41.05
20930;BME280;21895;47.072;15.132;2023-05-03T10:31:47;97265.00;;;20.99;41.93
20930;BME280;21895;47.072;15.132;2023-05-03T10:34:23;97267.00;;;20.85;42.15
20930;BME280;21895;47.072;15.132;2023-05-03T10:36:51;97271.00;;;20.72;43.82
20930;BME280;21895;47.072;15.132;2023-05-03T10:39:20;97268.00;;;21.13;42.45
20930;BME280;21895;47.072;15.132;2023-05-03T10:42:02;97265.00;;;21.21;41.27
20930;BME280;21895;47.072;15.132;2023-05-03T10:44:49;97263.00;;;21.06;43.16
20930;BME280;21895;47.072;15.132;2023-05-03T10:47:19;97260.00;;;21.40;41.00
20930;BME280;21895;47.072;15.132;2023-05-03T10:50:03;97258.00;;;21.70;41.19
20930;BME280;21895;47.072;15.132;2023-05-03T10:52:49;97250.00;;;22.02;39.08
20930;BME280;21895;47.072;15.132;2023-05-03T10:55:21;97255.00;;;21.46;39.82
20930;BME280;21895;47.072;15.132;2023-05-03T10:57:56;97253.00;;;21.22;39.42
20930;BME280;21895;47.072;15.132;2023-05-03T11:00:57;97260.00;;;21.18;39.44
20930;BME280;21895;47.072;15.132;2023-05-03T11:05:05;97258.00;;;21.40;38.86
20930;BME280;21895;47.072;15.132;2023-05-03T11:07:35;97255.00;;;21.05;40.46
20930;BME280;21895;47.072;15.132;2023-05-03T11:10:17;97260.00;;;20.94;40.35
20930;BME280;21895;47.072;15.132;2023-05-03T11:12:43;97261.00;;;20.83;41.91
20930;BME280;21895;47.072;15.132;2023-05-03T11:15:10;97258.00;;;20.89;41.28
20930;BME280;21895;47.072;15.132;2023-05-03T11:17:38;97255.00;;;20.84;39.57
20930;BME280;21895;47.072;15.132;2023-05-03T11:20:08;97262.00;;;20.87;40.98
20930;BME280;21895;47.072;15.132;2023-05-03T11:22:35;97251.00;;;21.16;42.13
20930;BME280;21895;47.072;15.132;2023-05-03T11:25:02;97255.00;;;21.32;41.48
20930;BME280;21895;47.072;15.132;2023-05-03T11:27:29;97258.00;;;21.47;37.42
20930;BME280;21895;47.072;15.132;2023-05-03T11:29:55;97248.00;;;21.51;38.60
20930;BME280;21895;47.072;15.132;2023-05-03T11:32:27;97252.00;;;21.50;39.70
20930;BME280;21895;47.072;15.132;2023-05-03T11:34:56;97250.00;;;21.43;38.49
20930;BME280;21895;47.072;15.132;2023-05-03T11:37:25;97255.00;;;21.47;39.68
20930;BME280;21895;47.072;15.132;2023-05-03T11:39:52;97252.00;;;21.47;39.59
20930;BME280;21895;47.072;15.132;2023-05-03T11:42:18;97247.00;;;21.37;41.58
20930;BME280;21895;47.072;15.132;2023-05-03T11:44:45;97246.00;;;21.40;38.15
20930;BME280;21895;47.072;15.132;2023-05-03T11:47:11;97242.00;;;21.17;38.46
20930;BME280;21895;47.072;15.132;2023-05-03T11:49:38;97250.00;;;21.05;41.33
20930;BME280;21895;47.072;15.132;2023-05-03T11:52:05;97250.00;;;20.83;40.62
20930;BME280;21895;47.072;15.132;2023-05-03T11:54:31;97256.00;;;20.73;41.35
20930;BME280;21895;47.072;15.132;2023-05-03T11:56:58;97251.00;;;20.49;41.41
20930;BME280;21895;47.072;15.132;2023-05-03T11:59:37;97248.00;;;20.12;42.15
20930;BME280;21895;47.072;15.132;2023-05-03T12:02:07;97249.00;;;19.68;44.13
20930;BME280;21895;47.072;15.132;2023-05-03T12:04:36;97255.00;;;19.75;44.08
20930;BME280;21895;47.072;15.132;2023-05-03T12:07:11;97257.00;;;19.73;44.50
20930;BME280;21895;47.072;15.132;2023-05-03T12:09:40;97263.00;;;19.69;44.26
20930;BME280;21895;47.072;15.132;2023-05-03T12:12:18;97262.00;;;19.81;40.67
20930;BME280;21895;47.072;15.132;2023-05-03T12:15:01;97263.00;;;19.34;41.42
20930;BME280;21895;47.072;15.132;2023-05-03T12:17:38;97264.00;;;19.16;41.56
20930;BME280;21895;47.072;15.132;2023-05-03T12:20:21;97268.00;;;18.72;42.12
20930;BME280;21895;47.072;15.132;2023-05-03T12:22:54;97264.00;;;18.61;43.15
20930;BME280;21895;47.072;15.132;2023-05-03T12:25:24;97259.00;;;18.41;44.99
20930;BME280;21895;47.072;15.132;2023-05-03T12:27:59;97259.00;;;18.48;42.76
20930;BME280;21895;47.072;15.132;2023-05-03T12:30:29;97259.00;;;18.28;41.44
20930;BME280;21895;47.072;15.132;2023-05-03T12:32:59;97263.00;;;18.39;41.92
20930;BME280;21895;47.072;15.132;2023-05-03T12:35:30;97264.00;;;18.43;41.70
20930;BME280;21895;47.072;15.132;2023-05-03T12:38:00;97266.00;;;18.49;42.67
20930;BME280;21895;47.072;15.132;2023-05-03T12:40:30;97265.00;;;18.72;41.75
20930;BME280;21895;47.072;15.132;2023-05-03T12:43:02;97265.00;;;18.79;42.88
20930;BME280;21895;47.072;15.132;2023-05-03T12:45:28;97258.00;;;18.94;43.86
20930;BME280;21895;47.072;15.132;2023-05-03T12:48:00;97250.00;;;19.21;41.60
20930;BME280;21895;47.072;15.132;2023-05-03T12:50:28;97257.00;;;19.49;40.90
20930;BME280;21895;47.072;15.132;2023-05-03T12:52:58;97262.00;;;19.35;41.49
20930;BME280;21895;47.072;15.132;2023-05-03T12:55:29;97263.00;;;19.42;42.90
20930;BME280;21895;47.072;15.132;2023-05-03T12:58:01;97255.00;;;19.58;43.29
20930;BME280;21895;47.072;15.132;2023-05-03T13:00:30;97253.00;;;19.23;49.70
20930;BME280;21895;47.072;15.132;2023-05-03T13:03:03;97259.00;;;18.89;51.91
20930;BME280;21895;47.072;15.132;2023-05-03T13:05:33;97257.00;;;18.55;53.72
20930;BME280;21895;47.072;15.132;2023-05-03T13:08:02;97250.00;;;18.49;54.28
20930;BME280;21895;47.072;15.132;2023-05-03T13:10:36;97253.00;;;18.41;54.85
20930;BME280;21895;47.072;15.132;2023-05-03T13:13:03;97257.00;;;18.47;55.47
20930;BME280;21895;47.072;15.132;2023-05-03T13:15:30;97254.00;;;18.26;56.21